CA-0215 weather

CLOSED Macfarland Airport
New Brunswick, Canada

Public forecast

Using degrees Celsius for public forecast. Weather courtesy of forecast.io.

METAR (pilot weather report)

Closest report is Northern Aroostook Regional Airport, 17.9 nm (33.2 km) S. Retrieved 2019/05/19 13:53 UTC (24 minutes ago):

KFVE 191353Z AUTO 13004KT 10SM OVC100 12/03 A3008 RMK AO2 SLP188 T01220028

TAF (pilot weather forecast)

Closest forecast is Northern Aroostook Regional Airport, 17.9 nm (33.2 km) S. Retrieved 2019/05/19 12:22 UTC (2 hours ago):

TAF KFVE 191120Z 1912/2012 18003KT P6SM OVC250 FM191700 20007KT P6SM VCSH OVC035 FM200100 17006KT 5SM -RA OVC022 FM200500 14008KT 3SM -RA OVC009 FM201000 14009KT 5SM -RADZ OVC007